sensor_id;sensor_type;location;lat;lon;timestamp;P1;durP1;ratioP1;P2;durP2;ratioP2
2522;SDS011;1272;53.332;9.860;2023-04-06T00:01:38;9.40;;;6.97;;
2522;SDS011;1272;53.332;9.860;2023-04-06T00:04:04;9.27;;;7.00;;
2522;SDS011;1272;53.332;9.860;2023-04-06T00:06:31;9.70;;;6.67;;
2522;SDS011;1272;53.332;9.860;2023-04-06T00:08:57;9.30;;;6.63;;
2522;SDS011;1272;53.332;9.860;2023-04-06T00:11:24;8.43;;;7.00;;
2522;SDS011;1272;53.332;9.860;2023-04-06T00:13:50;11.77;;;6.30;;
2522;SDS011;1272;53.332;9.860;2023-04-06T00:16:16;6.37;;;5.77;;
2522;SDS011;1272;53.332;9.860;2023-04-06T00:18:42;7.27;;;5.80;;
2522;SDS011;1272;53.332;9.860;2023-04-06T00:21:10;9.80;;;6.03;;
2522;SDS011;1272;53.332;9.860;2023-04-06T00:23:38;7.20;;;5.80;;
2522;SDS011;1272;53.332;9.860;2023-04-06T00:26:04;6.30;;;5.70;;
2522;SDS011;1272;53.332;9.860;2023-04-06T00:28:30;5.70;;;5.20;;
2522;SDS011;1272;53.332;9.860;2023-04-06T00:30:55;7.37;;;5.93;;
2522;SDS011;1272;53.332;9.860;2023-04-06T00:33:22;9.50;;;5.30;;
2522;SDS011;1272;53.332;9.860;2023-04-06T00:35:48;5.77;;;5.20;;
2522;SDS011;1272;53.332;9.860;2023-04-06T00:38:14;9.50;;;5.90;;
2522;SDS011;1272;53.332;9.860;2023-04-06T00:40:40;7.33;;;5.30;;
2522;SDS011;1272;53.332;9.860;2023-04-06T00:43:06;8.13;;;5.60;;
2522;SDS011;1272;53.332;9.860;2023-04-06T00:45:34;9.87;;;6.03;;
2522;SDS011;1272;53.332;9.860;2023-04-06T00:48:00;6.63;;;5.10;;
2522;SDS011;1272;53.332;9.860;2023-04-06T00:50:26;8.00;;;5.80;;
2522;SDS011;1272;53.332;9.860;2023-04-06T00:52:53;8.10;;;6.43;;
2522;SDS011;1272;53.332;9.860;2023-04-06T00:55:21;6.73;;;5.50;;
2522;SDS011;1272;53.332;9.860;2023-04-06T00:57:47;6.47;;;5.20;;
2522;SDS011;1272;53.332;9.860;2023-04-06T01:00:15;6.70;;;5.30;;
2522;SDS011;1272;53.332;9.860;2023-04-06T01:02:41;6.00;;;5.50;;
2522;SDS011;1272;53.332;9.860;2023-04-06T01:05:07;7.70;;;5.47;;
2522;SDS011;1272;53.332;9.860;2023-04-06T01:07:33;7.73;;;5.70;;
2522;SDS011;1272;53.332;9.860;2023-04-06T01:09:59;6.10;;;5.03;;
2522;SDS011;1272;53.332;9.860;2023-04-06T01:12:25;6.20;;;5.50;;
2522;SDS011;1272;53.332;9.860;2023-04-06T01:14:51;7.40;;;5.43;;
2522;SDS011;1272;53.332;9.860;2023-04-06T01:17:16;5.33;;;4.63;;
2522;SDS011;1272;53.332;9.860;2023-04-06T01:19:42;5.03;;;4.63;;
2522;SDS011;1272;53.332;9.860;2023-04-06T01:22:13;5.60;;;5.10;;
2522;SDS011;1272;53.332;9.860;2023-04-06T01:24:40;7.20;;;4.90;;
2522;SDS011;1272;53.332;9.860;2023-04-06T01:27:10;6.10;;;4.60;;
2522;SDS011;1272;53.332;9.860;2023-04-06T01:29:36;4.70;;;4.30;;
2522;SDS011;1272;53.332;9.860;2023-04-06T01:32:02;4.80;;;4.40;;
2522;SDS011;1272;53.332;9.860;2023-04-06T01:34:28;9.03;;;4.80;;
2522;SDS011;1272;53.332;9.860;2023-04-06T01:36:53;4.83;;;4.43;;
2522;SDS011;1272;53.332;9.860;2023-04-06T01:39:19;5.90;;;5.03;;
2522;SDS011;1272;53.332;9.860;2023-04-06T01:41:45;4.90;;;4.23;;
2522;SDS011;1272;53.332;9.860;2023-04-06T01:44:12;4.57;;;4.07;;
2522;SDS011;1272;53.332;9.860;2023-04-06T01:46:41;5.93;;;5.33;;
2522;SDS011;1272;53.332;9.860;2023-04-06T01:49:06;4.70;;;4.20;;
2522;SDS011;1272;53.332;9.860;2023-04-06T01:51:32;6.03;;;5.13;;
2522;SDS011;1272;53.332;9.860;2023-04-06T01:53:58;4.20;;;3.80;;
2522;SDS011;1272;53.332;9.860;2023-04-06T01:56:24;5.03;;;4.30;;
2522;SDS011;1272;53.332;9.860;2023-04-06T01:58:50;4.20;;;3.90;;
2522;SDS011;1272;53.332;9.860;2023-04-06T02:01:16;5.20;;;4.00;;
2522;SDS011;1272;53.332;9.860;2023-04-06T02:03:41;4.90;;;4.47;;
2522;SDS011;1272;53.332;9.860;2023-04-06T02:06:07;4.90;;;4.50;;
2522;SDS011;1272;53.332;9.860;2023-04-06T02:08:33;4.33;;;3.90;;
2522;SDS011;1272;53.332;9.860;2023-04-06T02:10:59;4.10;;;3.67;;
2522;SDS011;1272;53.332;9.860;2023-04-06T02:13:24;5.13;;;4.63;;
2522;SDS011;1272;53.332;9.860;2023-04-06T02:15:50;5.60;;;5.10;;
2522;SDS011;1272;53.332;9.860;2023-04-06T02:18:16;5.50;;;4.93;;
2522;SDS011;1272;53.332;9.860;2023-04-06T02:20:43;5.87;;;4.37;;
2522;SDS011;1272;53.332;9.860;2023-04-06T02:23:09;4.67;;;4.20;;
2522;SDS011;1272;53.332;9.860;2023-04-06T02:25:35;6.23;;;5.73;;
2522;SDS011;1272;53.332;9.860;2023-04-06T02:28:01;5.27;;;4.87;;
2522;SDS011;1272;53.332;9.860;2023-04-06T02:30:27;6.13;;;4.97;;
2522;SDS011;1272;53.332;9.860;2023-04-06T02:32:54;5.40;;;4.90;;
2522;SDS011;1272;53.332;9.860;2023-04-06T02:35:19;7.97;;;4.83;;
2522;SDS011;1272;53.332;9.860;2023-04-06T02:37:45;8.07;;;6.67;;
2522;SDS011;1272;53.332;9.860;2023-04-06T02:40:11;9.17;;;4.90;;
2522;SDS011;1272;53.332;9.860;2023-04-06T02:42:37;5.33;;;4.90;;
2522;SDS011;1272;53.332;9.860;2023-04-06T02:45:02;6.17;;;5.37;;
2522;SDS011;1272;53.332;9.860;2023-04-06T02:47:28;5.60;;;5.10;;
2522;SDS011;1272;53.332;9.860;2023-04-06T02:49:54;5.90;;;5.30;;
2522;SDS011;1272;53.332;9.860;2023-04-06T02:52:20;5.77;;;5.17;;
2522;SDS011;1272;53.332;9.860;2023-04-06T02:54:46;7.57;;;5.27;;
2522;SDS011;1272;53.332;9.860;2023-04-06T02:57:11;7.53;;;5.63;;
2522;SDS011;1272;53.332;9.860;2023-04-06T02:59:37;6.77;;;5.17;;
2522;SDS011;1272;53.332;9.860;2023-04-06T03:02:03;9.10;;;5.70;;
2522;SDS011;1272;53.332;9.860;2023-04-06T03:04:28;6.40;;;5.87;;
2522;SDS011;1272;53.332;9.860;2023-04-06T03:06:54;6.37;;;5.20;;
2522;SDS011;1272;53.332;9.860;2023-04-06T03:09:20;7.10;;;5.90;;
2522;SDS011;1272;53.332;9.860;2023-04-06T03:11:46;6.43;;;5.30;;
2522;SDS011;1272;53.332;9.860;2023-04-06T03:14:13;6.07;;;5.57;;
2522;SDS011;1272;53.332;9.860;2023-04-06T03:16:39;8.67;;;4.93;;
2522;SDS011;1272;53.332;9.860;2023-04-06T03:19:05;5.50;;;5.00;;
2522;SDS011;1272;53.332;9.860;2023-04-06T03:21:31;4.87;;;4.47;;
2522;SDS011;1272;53.332;9.860;2023-04-06T03:23:56;6.70;;;4.93;;
2522;SDS011;1272;53.332;9.860;2023-04-06T03:26:22;9.80;;;5.40;;
2522;SDS011;1272;53.332;9.860;2023-04-06T03:28:48;6.10;;;5.57;;
2522;SDS011;1272;53.332;9.860;2023-04-06T03:31:13;6.30;;;5.80;;
2522;SDS011;1272;53.332;9.860;2023-04-06T03:33:39;8.33;;;5.40;;
2522;SDS011;1272;53.332;9.860;2023-04-06T03:36:05;5.87;;;5.37;;
2522;SDS011;1272;53.332;9.860;2023-04-06T03:38:31;6.10;;;5.50;;
2522;SDS011;1272;53.332;9.860;2023-04-06T03:40:57;5.43;;;4.97;;
2522;SDS011;1272;53.332;9.860;2023-04-06T03:43:23;5.50;;;5.00;;
2522;SDS011;1272;53.332;9.860;2023-04-06T03:45:49;8.60;;;6.23;;
2522;SDS011;1272;53.332;9.860;2023-04-06T03:48:15;5.83;;;5.33;;
2522;SDS011;1272;53.332;9.860;2023-04-06T03:50:40;6.17;;;5.40;;
2522;SDS011;1272;53.332;9.860;2023-04-06T03:53:06;7.37;;;5.37;;
2522;SDS011;1272;53.332;9.860;2023-04-06T03:55:32;6.13;;;5.53;;
2522;SDS011;1272;53.332;9.860;2023-04-06T03:57:57;5.07;;;4.67;;
2522;SDS011;1272;53.332;9.860;2023-04-06T04:00:24;5.37;;;4.90;;
2522;SDS011;1272;53.332;9.860;2023-04-06T04:02:50;8.73;;;5.07;;
2522;SDS011;1272;53.332;9.860;2023-04-06T04:05:16;5.73;;;5.00;;
2522;SDS011;1272;53.332;9.860;2023-04-06T04:07:41;5.63;;;4.90;;
2522;SDS011;1272;53.332;9.860;2023-04-06T04:10:07;5.77;;;5.27;;
2522;SDS011;1272;53.332;9.860;2023-04-06T04:12:33;7.23;;;5.30;;
2522;SDS011;1272;53.332;9.860;2023-04-06T04:14:59;5.93;;;5.40;;
2522;SDS011;1272;53.332;9.860;2023-04-06T04:17:25;7.90;;;5.23;;
2522;SDS011;1272;53.332;9.860;2023-04-06T04:19:50;8.23;;;6.07;;
2522;SDS011;1272;53.332;9.860;2023-04-06T04:22:16;7.33;;;5.80;;
2522;SDS011;1272;53.332;9.860;2023-04-06T04:24:42;7.90;;;5.33;;
2522;SDS011;1272;53.332;9.860;2023-04-06T04:27:07;6.77;;;6.07;;
2522;SDS011;1272;53.332;9.860;2023-04-06T04:29:33;7.10;;;6.23;;
2522;SDS011;1272;53.332;9.860;2023-04-06T04:31:59;6.47;;;5.77;;
2522;SDS011;1272;53.332;9.860;2023-04-06T04:34:25;11.33;;;5.80;;
2522;SDS011;1272;53.332;9.860;2023-04-06T04:36:54;5.90;;;5.40;;
2522;SDS011;1272;53.332;9.860;2023-04-06T04:39:20;5.37;;;4.80;;
2522;SDS011;1272;53.332;9.860;2023-04-06T04:41:46;6.00;;;5.40;;
2522;SDS011;1272;53.332;9.860;2023-04-06T04:44:11;6.13;;;5.20;;
2522;SDS011;1272;53.332;9.860;2023-04-06T04:46:38;7.90;;;6.53;;
2522;SDS011;1272;53.332;9.860;2023-04-06T04:49:04;8.67;;;6.47;;
2522;SDS011;1272;53.332;9.860;2023-04-06T04:51:30;6.33;;;5.73;;
2522;SDS011;1272;53.332;9.860;2023-04-06T04:53:57;7.43;;;6.00;;
2522;SDS011;1272;53.332;9.860;2023-04-06T04:56:23;6.40;;;5.80;;
2522;SDS011;1272;53.332;9.860;2023-04-06T04:58:49;7.43;;;6.13;;
2522;SDS011;1272;53.332;9.860;2023-04-06T05:01:15;8.17;;;7.10;;
2522;SDS011;1272;53.332;9.860;2023-04-06T05:03:40;8.70;;;7.80;;
2522;SDS011;1272;53.332;9.860;2023-04-06T05:06:06;7.87;;;7.07;;
2522;SDS011;1272;53.332;9.860;2023-04-06T05:08:32;11.17;;;7.90;;
2522;SDS011;1272;53.332;9.860;2023-04-06T05:10:58;8.30;;;7.20;;
2522;SDS011;1272;53.332;9.860;2023-04-06T05:13:24;6.70;;;6.00;;
2522;SDS011;1272;53.332;9.860;2023-04-06T05:15:50;7.00;;;6.30;;
2522;SDS011;1272;53.332;9.860;2023-04-06T05:18:15;7.07;;;6.37;;
2522;SDS011;1272;53.332;9.860;2023-04-06T05:20:42;8.30;;;7.17;;
2522;SDS011;1272;53.332;9.860;2023-04-06T05:23:07;8.20;;;7.30;;
2522;SDS011;1272;53.332;9.860;2023-04-06T05:25:33;8.07;;;7.27;;
2522;SDS011;1272;53.332;9.860;2023-04-06T05:27:59;11.57;;;7.40;;
2522;SDS011;1272;53.332;9.860;2023-04-06T05:30:25;8.70;;;7.80;;
2522;SDS011;1272;53.332;9.860;2023-04-06T05:32:51;8.17;;;7.30;;
2522;SDS011;1272;53.332;9.860;2023-04-06T05:35:16;8.77;;;7.50;;
2522;SDS011;1272;53.332;9.860;2023-04-06T05:37:42;10.30;;;8.03;;
2522;SDS011;1272;53.332;9.860;2023-04-06T05:40:08;8.87;;;8.10;;
2522;SDS011;1272;53.332;9.860;2023-04-06T05:42:37;12.97;;;8.80;;
2522;SDS011;1272;53.332;9.860;2023-04-06T05:45:05;11.70;;;9.83;;
2522;SDS011;1272;53.332;9.860;2023-04-06T05:47:31;10.00;;;9.10;;
2522;SDS011;1272;53.332;9.860;2023-04-06T05:49:57;12.47;;;10.67;;
2522;SDS011;1272;53.332;9.860;2023-04-06T05:52:23;12.73;;;11.20;;
2522;SDS011;1272;53.332;9.860;2023-04-06T05:54:48;10.20;;;9.27;;
2522;SDS011;1272;53.332;9.860;2023-04-06T05:57:15;12.90;;;10.20;;
2522;SDS011;1272;53.332;9.860;2023-04-06T05:59:41;13.13;;;10.40;;
2522;SDS011;1272;53.332;9.860;2023-04-06T06:02:07;13.07;;;10.37;;
2522;SDS011;1272;53.332;9.860;2023-04-06T06:04:33;11.20;;;10.03;;
2522;SDS011;1272;53.332;9.860;2023-04-06T06:06:58;13.20;;;10.50;;
2522;SDS011;1272;53.332;9.860;2023-04-06T06:09:25;11.50;;;9.93;;
2522;SDS011;1272;53.332;9.860;2023-04-06T06:11:51;13.90;;;10.90;;
2522;SDS011;1272;53.332;9.860;2023-04-06T06:14:17;12.37;;;11.00;;
2522;SDS011;1272;53.332;9.860;2023-04-06T06:16:42;16.90;;;11.30;;
2522;SDS011;1272;53.332;9.860;2023-04-06T06:19:08;14.77;;;12.63;;
2522;SDS011;1272;53.332;9.860;2023-04-06T06:21:34;14.40;;;10.87;;
2522;SDS011;1272;53.332;9.860;2023-04-06T06:23:59;16.17;;;12.70;;
2522;SDS011;1272;53.332;9.860;2023-04-06T06:26:25;16.00;;;12.07;;
2522;SDS011;1272;53.332;9.860;2023-04-06T06:28:51;15.73;;;11.37;;
2522;SDS011;1272;53.332;9.860;2023-04-06T06:31:17;14.37;;;11.27;;
2522;SDS011;1272;53.332;9.860;2023-04-06T06:33:45;16.60;;;12.40;;
2522;SDS011;1272;53.332;9.860;2023-04-06T06:36:12;14.07;;;11.80;;
2522;SDS011;1272;53.332;9.860;2023-04-06T06:38:38;13.70;;;12.30;;
2522;SDS011;1272;53.332;9.860;2023-04-06T06:41:04;13.43;;;10.97;;
2522;SDS011;1272;53.332;9.860;2023-04-06T06:43:30;13.20;;;11.80;;
2522;SDS011;1272;53.332;9.860;2023-04-06T06:45:55;15.20;;;11.17;;
2522;SDS011;1272;53.332;9.860;2023-04-06T06:48:21;17.20;;;13.27;;
2522;SDS011;1272;53.332;9.860;2023-04-06T06:50:47;13.83;;;10.37;;
2522;SDS011;1272;53.332;9.860;2023-04-06T06:53:13;10.20;;;8.83;;
2522;SDS011;1272;53.332;9.860;2023-04-06T06:55:40;9.27;;;7.87;;
2522;SDS011;1272;53.332;9.860;2023-04-06T06:58:06;9.10;;;8.30;;
2522;SDS011;1272;53.332;9.860;2023-04-06T07:00:32;11.77;;;9.30;;
2522;SDS011;1272;53.332;9.860;2023-04-06T07:02:57;9.97;;;9.00;;
2522;SDS011;1272;53.332;9.860;2023-04-06T07:05:23;8.93;;;7.37;;
2522;SDS011;1272;53.332;9.860;2023-04-06T07:07:49;10.57;;;7.37;;
2522;SDS011;1272;53.332;9.860;2023-04-06T07:10:15;7.80;;;7.10;;
2522;SDS011;1272;53.332;9.860;2023-04-06T07:12:41;8.37;;;7.57;;
2522;SDS011;1272;53.332;9.860;2023-04-06T07:15:07;7.87;;;7.07;;
2522;SDS011;1272;53.332;9.860;2023-04-06T07:17:33;7.53;;;6.77;;
2522;SDS011;1272;53.332;9.860;2023-04-06T07:19:59;8.60;;;7.80;;
2522;SDS011;1272;53.332;9.860;2023-04-06T07:22:24;8.60;;;7.30;;
2522;SDS011;1272;53.332;9.860;2023-04-06T07:24:50;7.67;;;6.87;;
2522;SDS011;1272;53.332;9.860;2023-04-06T07:27:16;7.90;;;7.07;;
2522;SDS011;1272;53.332;9.860;2023-04-06T07:29:43;7.43;;;6.73;;
2522;SDS011;1272;53.332;9.860;2023-04-06T07:32:09;6.57;;;5.93;;
2522;SDS011;1272;53.332;9.860;2023-04-06T07:34:35;7.27;;;6.60;;
2522;SDS011;1272;53.332;9.860;2023-04-06T07:37:01;10.03;;;6.83;;
2522;SDS011;1272;53.332;9.860;2023-04-06T07:39:28;6.80;;;6.20;;
2522;SDS011;1272;53.332;9.860;2023-04-06T07:41:53;7.53;;;6.93;;
2522;SDS011;1272;53.332;9.860;2023-04-06T07:44:19;7.00;;;6.17;;
2522;SDS011;1272;53.332;9.860;2023-04-06T07:46:45;6.30;;;5.70;;
2522;SDS011;1272;53.332;9.860;2023-04-06T07:49:11;8.77;;;5.53;;
2522;SDS011;1272;53.332;9.860;2023-04-06T07:51:37;7.10;;;6.40;;
2522;SDS011;1272;53.332;9.860;2023-04-06T07:54:03;8.30;;;6.50;;
2522;SDS011;1272;53.332;9.860;2023-04-06T07:56:29;9.40;;;6.00;;
2522;SDS011;1272;53.332;9.860;2023-04-06T07:58:55;6.50;;;5.83;;
2522;SDS011;1272;53.332;9.860;2023-04-06T08:01:22;6.63;;;5.80;;
2522;SDS011;1272;53.332;9.860;2023-04-06T08:03:48;7.70;;;6.93;;
2522;SDS011;1272;53.332;9.860;2023-04-06T08:06:14;6.70;;;6.20;;
2522;SDS011;1272;53.332;9.860;2023-04-06T08:08:40;8.30;;;6.47;;
2522;SDS011;1272;53.332;9.860;2023-04-06T08:11:06;6.37;;;5.87;;
2522;SDS011;1272;53.332;9.860;2023-04-06T08:13:33;7.83;;;5.80;;
2522;SDS011;1272;53.332;9.860;2023-04-06T08:15:59;7.30;;;4.90;;
2522;SDS011;1272;53.332;9.860;2023-04-06T08:18:25;7.13;;;5.67;;
2522;SDS011;1272;53.332;9.860;2023-04-06T08:20:51;5.73;;;4.90;;
2522;SDS011;1272;53.332;9.860;2023-04-06T08:23:16;5.93;;;5.10;;
2522;SDS011;1272;53.332;9.860;2023-04-06T08:25:42;5.40;;;4.87;;
2522;SDS011;1272;53.332;9.860;2023-04-06T08:28:08;4.30;;;4.00;;
2522;SDS011;1272;53.332;9.860;2023-04-06T08:30:34;4.70;;;4.30;;
2522;SDS011;1272;53.332;9.860;2023-04-06T08:33:00;5.90;;;4.23;;
2522;SDS011;1272;53.332;9.860;2023-04-06T08:35:26;7.50;;;4.53;;
2522;SDS011;1272;53.332;9.860;2023-04-06T08:37:53;4.03;;;3.50;;
2522;SDS011;1272;53.332;9.860;2023-04-06T08:40:18;3.10;;;2.90;;
2522;SDS011;1272;53.332;9.860;2023-04-06T08:42:46;3.20;;;3.00;;
2522;SDS011;1272;53.332;9.860;2023-04-06T08:45:17;4.40;;;3.60;;
2522;SDS011;1272;53.332;9.860;2023-04-06T08:47:46;3.30;;;3.00;;
2522;SDS011;1272;53.332;9.860;2023-04-06T08:50:16;3.43;;;3.10;;
2522;SDS011;1272;53.332;9.860;2023-04-06T08:52:46;3.33;;;3.13;;
2522;SDS011;1272;53.332;9.860;2023-04-06T08:55:13;7.90;;;3.57;;
2522;SDS011;1272;53.332;9.860;2023-04-06T08:57:40;3.50;;;3.30;;
2522;SDS011;1272;53.332;9.860;2023-04-06T09:00:07;4.93;;;3.83;;
2522;SDS011;1272;53.332;9.860;2023-04-06T09:02:34;3.83;;;3.60;;
2522;SDS011;1272;53.332;9.860;2023-04-06T09:05:08;3.53;;;3.23;;
2522;SDS011;1272;53.332;9.860;2023-04-06T09:07:37;3.90;;;3.60;;
2522;SDS011;1272;53.332;9.860;2023-04-06T09:10:06;4.23;;;3.80;;
2522;SDS011;1272;53.332;9.860;2023-04-06T09:12:32;5.33;;;3.70;;
2522;SDS011;1272;53.332;9.860;2023-04-06T09:14:59;4.10;;;3.60;;
2522;SDS011;1272;53.332;9.860;2023-04-06T09:17:28;4.73;;;3.40;;
2522;SDS011;1272;53.332;9.860;2023-04-06T09:19:57;13.60;;;4.03;;
2522;SDS011;1272;53.332;9.860;2023-04-06T09:22:25;4.17;;;3.77;;
2522;SDS011;1272;53.332;9.860;2023-04-06T09:24:59;3.80;;;3.60;;
2522;SDS011;1272;53.332;9.860;2023-04-06T09:27:37;6.03;;;4.30;;
2522;SDS011;1272;53.332;9.860;2023-04-06T09:30:07;4.77;;;4.10;;
2522;SDS011;1272;53.332;9.860;2023-04-06T09:35:14;7.40;;;4.00;;
2522;SDS011;1272;53.332;9.860;2023-04-06T09:37:41;4.40;;;4.00;;
2522;SDS011;1272;53.332;9.860;2023-04-06T09:40:08;6.17;;;4.00;;
2522;SDS011;1272;53.332;9.860;2023-04-06T09:42:35;3.90;;;3.60;;
2522;SDS011;1272;53.332;9.860;2023-04-06T09:45:01;4.27;;;3.90;;
2522;SDS011;1272;53.332;9.860;2023-04-06T09:47:28;5.90;;;4.40;;
2522;SDS011;1272;53.332;9.860;2023-04-06T09:49:56;6.90;;;3.60;;
2522;SDS011;1272;53.332;9.860;2023-04-06T09:52:26;4.50;;;4.10;;
2522;SDS011;1272;53.332;9.860;2023-04-06T09:54:59;4.27;;;3.87;;
2522;SDS011;1272;53.332;9.860;2023-04-06T09:57:31;4.87;;;4.37;;
2522;SDS011;1272;53.332;9.860;2023-04-06T10:00:05;4.40;;;4.00;;
2522;SDS011;1272;53.332;9.860;2023-04-06T10:02:41;4.47;;;4.07;;
2522;SDS011;1272;53.332;9.860;2023-04-06T10:05:43;5.80;;;4.07;;
2522;SDS011;1272;53.332;9.860;2023-04-06T10:08:15;5.87;;;3.70;;
2522;SDS011;1272;53.332;9.860;2023-04-06T10:10:42;4.27;;;3.90;;
2522;SDS011;1272;53.332;9.860;2023-04-06T10:13:09;4.37;;;4.07;;
2522;SDS011;1272;53.332;9.860;2023-04-06T10:15:36;4.80;;;4.33;;
2522;SDS011;1272;53.332;9.860;2023-04-06T10:18:03;5.53;;;4.40;;
2522;SDS011;1272;53.332;9.860;2023-04-06T10:20:38;5.57;;;4.50;;
2522;SDS011;1272;53.332;9.860;2023-04-06T10:26:04;5.33;;;4.57;;
2522;SDS011;1272;53.332;9.860;2023-04-06T10:28:32;7.67;;;5.80;;
2522;SDS011;1272;53.332;9.860;2023-04-06T10:31:01;5.47;;;4.97;;
2522;SDS011;1272;53.332;9.860;2023-04-06T10:33:31;4.43;;;4.00;;
2522;SDS011;1272;53.332;9.860;2023-04-06T10:35:57;5.10;;;4.63;;
2522;SDS011;1272;53.332;9.860;2023-04-06T10:38:38;10.17;;;6.60;;
2522;SDS011;1272;53.332;9.860;2023-04-06T10:41:06;5.90;;;5.30;;
2522;SDS011;1272;53.332;9.860;2023-04-06T10:43:36;6.60;;;6.07;;
2522;SDS011;1272;53.332;9.860;2023-04-06T10:46:04;7.00;;;6.40;;
2522;SDS011;1272;53.332;9.860;2023-04-06T10:48:41;7.03;;;6.33;;
2522;SDS011;1272;53.332;9.860;2023-04-06T10:51:11;7.73;;;4.67;;
2522;SDS011;1272;53.332;9.860;2023-04-06T10:53:40;6.50;;;5.90;;
2522;SDS011;1272;53.332;9.860;2023-04-06T10:56:11;6.67;;;6.07;;
2522;SDS011;1272;53.332;9.860;2023-04-06T10:58:45;7.97;;;5.47;;
2522;SDS011;1272;53.332;9.860;2023-04-06T11:01:12;9.43;;;5.97;;
2522;SDS011;1272;53.332;9.860;2023-04-06T11:03:55;6.80;;;5.80;;
2522;SDS011;1272;53.332;9.860;2023-04-06T11:08:51;8.20;;;7.47;;
2522;SDS011;1272;53.332;9.860;2023-04-06T11:11:19;10.73;;;7.70;;
2522;SDS011;1272;53.332;9.860;2023-04-06T11:13:50;7.23;;;6.53;;
2522;SDS011;1272;53.332;9.860;2023-04-06T11:16:27;7.63;;;6.93;;
2522;SDS011;1272;53.332;9.860;2023-04-06T11:18:58;6.17;;;5.57;;
2522;SDS011;1272;53.332;9.860;2023-04-06T11:21:37;10.00;;;6.67;;
2522;SDS011;1272;53.332;9.860;2023-04-06T11:24:11;7.63;;;6.87;;
2522;SDS011;1272;53.332;9.860;2023-04-06T11:26:43;8.97;;;8.00;;
2522;SDS011;1272;53.332;9.860;2023-04-06T11:29:11;8.07;;;7.20;;
2522;SDS011;1272;53.332;9.860;2023-04-06T11:31:51;12.20;;;8.20;;
2522;SDS011;1272;53.332;9.860;2023-04-06T11:34:21;12.80;;;7.97;;
2522;SDS011;1272;53.332;9.860;2023-04-06T11:36:53;9.20;;;8.00;;
2522;SDS011;1272;53.332;9.860;2023-04-06T11:39:24;7.83;;;7.07;;
2522;SDS011;1272;53.332;9.860;2023-04-06T11:41:53;9.53;;;8.57;;
2522;SDS011;1272;53.332;9.860;2023-04-06T11:44:55;10.73;;;8.50;;
2522;SDS011;1272;53.332;9.860;2023-04-06T11:47:18;9.10;;;8.20;;
2522;SDS011;1272;53.332;9.860;2023-04-06T11:49:45;11.50;;;7.90;;
2522;SDS011;1272;53.332;9.860;2023-04-06T11:54:43;8.83;;;7.93;;
2522;SDS011;1272;53.332;9.860;2023-04-06T11:57:10;11.47;;;7.37;;
2522;SDS011;1272;53.332;9.860;2023-04-06T11:59:35;11.50;;;8.77;;
2522;SDS011;1272;53.332;9.860;2023-04-06T12:02:01;10.27;;;8.60;;
2522;SDS011;1272;53.332;9.860;2023-04-06T12:04:28;10.23;;;8.67;;
2522;SDS011;1272;53.332;9.860;2023-04-06T12:06:54;10.63;;;8.93;;
2522;SDS011;1272;53.332;9.860;2023-04-06T12:09:20;10.90;;;8.90;;
2522;SDS011;1272;53.332;9.860;2023-04-06T12:11:46;8.43;;;7.57;;
2522;SDS011;1272;53.332;9.860;2023-04-06T12:14:12;9.80;;;7.73;;
2522;SDS011;1272;53.332;9.860;2023-04-06T12:16:38;11.87;;;8.30;;
2522;SDS011;1272;53.332;9.860;2023-04-06T12:19:04;10.30;;;8.10;;
2522;SDS011;1272;53.332;9.860;2023-04-06T12:21:30;10.00;;;7.07;;
2522;SDS011;1272;53.332;9.860;2023-04-06T12:23:57;8.63;;;7.80;;
2522;SDS011;1272;53.332;9.860;2023-04-06T12:26:23;7.63;;;7.03;;
2522;SDS011;1272;53.332;9.860;2023-04-06T12:28:50;8.20;;;7.40;;
2522;SDS011;1272;53.332;9.860;2023-04-06T12:31:19;9.40;;;7.50;;
2522;SDS011;1272;53.332;9.860;2023-04-06T12:33:47;8.50;;;7.80;;
2522;SDS011;1272;53.332;9.860;2023-04-06T12:36:22;8.47;;;7.57;;
2522;SDS011;1272;53.332;9.860;2023-04-06T12:38:49;8.47;;;7.67;;
2522;SDS011;1272;53.332;9.860;2023-04-06T12:41:16;7.77;;;7.07;;
2522;SDS011;1272;53.332;9.860;2023-04-06T12:43:43;12.10;;;8.70;;
2522;SDS011;1272;53.332;9.860;2023-04-06T12:46:09;8.33;;;7.60;;
2522;SDS011;1272;53.332;9.860;2023-04-06T12:48:35;8.67;;;7.77;;
2522;SDS011;1272;53.332;9.860;2023-04-06T12:51:02;6.97;;;6.27;;
2522;SDS011;1272;53.332;9.860;2023-04-06T12:53:29;8.00;;;6.80;;
2522;SDS011;1272;53.332;9.860;2023-04-06T12:55:56;7.87;;;6.70;;
2522;SDS011;1272;53.332;9.860;2023-04-06T12:58:22;9.07;;;8.27;;
2522;SDS011;1272;53.332;9.860;2023-04-06T13:00:49;7.57;;;6.87;;
2522;SDS011;1272;53.332;9.860;2023-04-06T13:03:16;8.30;;;6.60;;
2522;SDS011;1272;53.332;9.860;2023-04-06T13:05:45;7.00;;;6.30;;
2522;SDS011;1272;53.332;9.860;2023-04-06T13:08:12;7.60;;;6.90;;
2522;SDS011;1272;53.332;9.860;2023-04-06T13:10:49;7.13;;;6.37;;
2522;SDS011;1272;53.332;9.860;2023-04-06T13:13:17;8.53;;;6.83;;
2522;SDS011;1272;53.332;9.860;2023-04-06T13:15:50;8.10;;;7.37;;
2522;SDS011;1272;53.332;9.860;2023-04-06T13:18:20;9.03;;;8.20;;
2522;SDS011;1272;53.332;9.860;2023-04-06T13:20:46;9.07;;;7.30;;
2522;SDS011;1272;53.332;9.860;2023-04-06T13:23:12;9.00;;;7.03;;
2522;SDS011;1272;53.332;9.860;2023-04-06T13:25:38;9.37;;;7.30;;
2522;SDS011;1272;53.332;9.860;2023-04-06T13:28:04;6.70;;;6.20;;
2522;SDS011;1272;53.332;9.860;2023-04-06T13:30:30;11.43;;;7.03;;
2522;SDS011;1272;53.332;9.860;2023-04-06T13:32:55;5.90;;;5.40;;
2522;SDS011;1272;53.332;9.860;2023-04-06T13:35:21;6.83;;;6.20;;
2522;SDS011;1272;53.332;9.860;2023-04-06T13:37:47;6.70;;;6.10;;
2522;SDS011;1272;53.332;9.860;2023-04-06T13:40:13;6.43;;;5.93;;
2522;SDS011;1272;53.332;9.860;2023-04-06T13:42:39;7.73;;;6.93;;
2522;SDS011;1272;53.332;9.860;2023-04-06T13:45:06;10.00;;;6.80;;
2522;SDS011;1272;53.332;9.860;2023-04-06T13:47:33;6.00;;;5.50;;
2522;SDS011;1272;53.332;9.860;2023-04-06T13:49:58;6.23;;;5.60;;
2522;SDS011;1272;53.332;9.860;2023-04-06T13:52:25;6.80;;;5.93;;
2522;SDS011;1272;53.332;9.860;2023-04-06T13:54:50;6.90;;;6.30;;
2522;SDS011;1272;53.332;9.860;2023-04-06T13:57:17;6.70;;;6.00;;
2522;SDS011;1272;53.332;9.860;2023-04-06T13:59:43;6.80;;;6.17;;
2522;SDS011;1272;53.332;9.860;2023-04-06T14:02:09;6.50;;;5.90;;
2522;SDS011;1272;53.332;9.860;2023-04-06T14:04:35;6.13;;;5.60;;
2522;SDS011;1272;53.332;9.860;2023-04-06T14:07:02;6.97;;;6.30;;
2522;SDS011;1272;53.332;9.860;2023-04-06T14:09:28;6.40;;;5.80;;
2522;SDS011;1272;53.332;9.860;2023-04-06T14:11:55;7.27;;;6.50;;
2522;SDS011;1272;53.332;9.860;2023-04-06T14:14:22;6.43;;;5.83;;
2522;SDS011;1272;53.332;9.860;2023-04-06T14:16:48;7.10;;;6.50;;
2522;SDS011;1272;53.332;9.860;2023-04-06T14:19:15;6.47;;;5.97;;
2522;SDS011;1272;53.332;9.860;2023-04-06T14:21:44;7.03;;;6.37;;
2522;SDS011;1272;53.332;9.860;2023-04-06T14:24:10;5.23;;;4.83;;
2522;SDS011;1272;53.332;9.860;2023-04-06T14:26:37;6.90;;;5.50;;
2522;SDS011;1272;53.332;9.860;2023-04-06T14:29:04;6.13;;;5.60;;
2522;SDS011;1272;53.332;9.860;2023-04-06T14:31:31;6.10;;;5.60;;
2522;SDS011;1272;53.332;9.860;2023-04-06T14:33:57;6.97;;;6.33;;
2522;SDS011;1272;53.332;9.860;2023-04-06T14:36:23;6.00;;;5.43;;
2522;SDS011;1272;53.332;9.860;2023-04-06T14:38:52;6.23;;;5.63;;
2522;SDS011;1272;53.332;9.860;2023-04-06T14:41:18;6.67;;;6.07;;
2522;SDS011;1272;53.332;9.860;2023-04-06T14:43:45;5.93;;;5.43;;
2522;SDS011;1272;53.332;9.860;2023-04-06T14:46:12;6.83;;;6.23;;
2522;SDS011;1272;53.332;9.860;2023-04-06T14:48:38;5.73;;;5.20;;
2522;SDS011;1272;53.332;9.860;2023-04-06T14:51:03;8.70;;;6.90;;
2522;SDS011;1272;53.332;9.860;2023-04-06T14:53:29;6.80;;;6.20;;
2522;SDS011;1272;53.332;9.860;2023-04-06T14:55:56;5.70;;;5.30;;
2522;SDS011;1272;53.332;9.860;2023-04-06T14:58:22;5.90;;;5.40;;
2522;SDS011;1272;53.332;9.860;2023-04-06T15:00:49;6.40;;;5.80;;
2522;SDS011;1272;53.332;9.860;2023-04-06T15:03:21;6.20;;;5.73;;
2522;SDS011;1272;53.332;9.860;2023-04-06T15:05:46;6.87;;;5.90;;
2522;SDS011;1272;53.332;9.860;2023-04-06T15:08:12;7.30;;;6.67;;
2522;SDS011;1272;53.332;9.860;2023-04-06T15:10:40;7.07;;;6.40;;
2522;SDS011;1272;53.332;9.860;2023-04-06T15:13:05;7.00;;;6.40;;
2522;SDS011;1272;53.332;9.860;2023-04-06T15:15:31;6.33;;;5.87;;
2522;SDS011;1272;53.332;9.860;2023-04-06T15:17:57;8.37;;;7.57;;
2522;SDS011;1272;53.332;9.860;2023-04-06T15:20:23;6.70;;;5.97;;
2522;SDS011;1272;53.332;9.860;2023-04-06T15:22:49;7.67;;;7.00;;